Time;durP1;ratioP1;P1;durP2;ratioP2;P2;SDS_P1;SDS_P2;PMS_P1;PMS_P2;Temp;Humidity;BMP_temperature;BMP_pressure;BME280_temperature;BME280_humidity;BME280_pressure;Samples;Min_cycle;Max_cycle;Signal;HPM_P1;HPM_P2
2023/09/27 00:01:13;;;;;;;15.70;6.50;;;;;;;18.34;42.12;100334.85;79485;1294;3011652;-65
2023/09/27 00:03:42;;;;;;;15.90;7.20;;;;;;;18.31;42.67;100335.12;78230;1296;3026782;-65
2023/09/27 00:06:09;;;;;;;16.20;6.70;;;;;;;18.28;42.87;100328.28;79621;1295;3012999;-62
2023/09/27 00:08:35;;;;;;;20.00;6.60;;;;;;;18.24;43.27;100327.16;79461;1295;3013061;-63
2023/09/27 00:11:03;;;;;;;22.40;6.60;;;;;;;18.22;43.32;100326.56;78285;1295;3048968;-64
2023/09/27 00:13:30;;;;;;;20.50;6.70;;;;;;;18.20;43.85;100334.77;79701;1297;3013430;-64
2023/09/27 00:15:56;;;;;;;16.60;7.40;;;;;;;18.19;44.13;100332.90;79531;1297;3013712;-64
2023/09/27 00:18:24;;;;;;;18.10;6.60;;;;;;;18.16;43.96;100329.41;78267;1297;3028499;-65
2023/09/27 00:20:51;;;;;;;18.80;6.90;;;;;;;18.14;43.98;100326.55;79535;1294;3013070;-64
2023/09/27 00:23:18;;;;;;;17.50;7.70;;;;;;;18.08;44.71;100325.02;79613;1295;3011612;-63
2023/09/27 00:25:45;;;;;;;15.50;7.70;;;;;;;18.06;44.57;100327.84;78231;1297;3026755;-65
2023/09/27 00:28:12;;;;;;;21.70;7.70;;;;;;;18.01;45.17;100328.98;79575;1295;3012749;-66
2023/09/27 00:30:38;;;;;;;21.00;8.20;;;;;;;17.94;45.25;100326.98;79513;1295;3011947;-63
2023/09/27 00:33:07;;;;;;;20.40;7.60;;;;;;;17.92;45.16;100326.58;78306;1297;3028283;-64
2023/09/27 00:35:33;;;;;;;22.30;8.70;;;;;;;17.90;45.25;100325.86;79622;1295;3014606;-66
2023/09/27 00:38:00;;;;;;;17.90;8.00;;;;;;;17.88;45.07;100324.06;79628;1295;3011843;-65
2023/09/27 00:40:28;;;;;;;15.80;8.00;;;;;;;17.86;45.11;100329.58;78338;1297;3049399;-63
2023/09/27 00:42:54;;;;;;;21.10;7.10;;;;;;;17.84;45.04;100330.60;79399;1294;3018289;-63
2023/09/27 00:45:21;;;;;;;18.10;7.50;;;;;;;17.81;45.12;100329.22;79530;1297;3011811;-63
2023/09/27 00:47:49;;;;;;;13.90;7.50;;;;;;;17.78;45.58;100330.17;78535;1293;3028640;-62
2023/09/27 00:50:16;;;;;;;14.30;7.30;;;;;;;17.75;45.40;100326.27;79477;1299;3013596;-64
2023/09/27 00:52:43;;;;;;;13.30;7.10;;;;;;;17.74;45.75;100332.40;79418;1295;3013378;-65
2023/09/27 00:55:12;;;;;;;19.00;7.70;;;;;;;17.74;45.30;100330.06;78437;1295;3049112;-65
2023/09/27 00:57:40;;;;;;;22.80;7.50;;;;;;;17.74;45.40;100332.75;79531;1295;3014540;-65
2023/09/27 01:00:10;;;;;;;14.90;6.60;;;;;;;17.73;45.35;100329.11;78970;1297;3011897;-62
2023/09/27 01:02:40;;;;;;;19.30;7.00;;;;;;;17.73;45.34;100333.23;79701;1297;3014095;-63
2023/09/27 01:05:09;;;;;;;21.60;6.40;;;;;;;17.69;45.59;100330.65;78221;1300;3070415;-64
2023/09/27 01:07:37;;;;;;;15.80;7.20;;;;;;;17.67;45.27;100330.14;79610;1295;3011803;-65
2023/09/27 01:10:04;;;;;;;20.70;7.50;;;;;;;17.61;45.73;100332.48;79725;1294;3011843;-63
2023/09/27 01:12:37;;;;;;;17.90;7.10;;;;;;;17.59;45.89;100334.23;78456;1294;3054133;-66
2023/09/27 01:15:05;;;;;;;13.70;7.40;;;;;;;17.59;45.71;100337.27;79727;1297;3012694;-66
2023/09/27 01:17:35;;;;;;;19.40;6.80;;;;;;;17.59;45.87;100336.35;79127;1294;3011631;-64
2023/09/27 01:20:02;;;;;;;14.50;6.90;;;;;;;17.61;45.84;100335.89;79572;1295;3013363;-64
2023/09/27 01:22:29;;;;;;;17.40;6.70;;;;;;;17.63;46.14;100340.18;79602;1297;3011684;-66
2023/09/27 01:24:57;;;;;;;15.60;7.30;;;;;;;17.64;45.71;100341.33;78211;1296;3056027;-65
2023/09/27 01:27:26;;;;;;;13.00;6.70;;;;;;;17.65;45.75;100346.04;79843;1294;3013622;-66
2023/09/27 01:29:52;;;;;;;19.00;6.50;;;;;;;17.64;45.67;100344.31;79325;1295;3011987;-65
2023/09/27 01:32:20;;;;;;;16.90;6.90;;;;;;;17.64;45.66;100342.19;78510;1298;3052566;-64
2023/09/27 01:34:46;;;;;;;17.80;7.90;;;;;;;17.65;45.40;100339.87;79560;1295;3013616;-62
2023/09/27 01:37:13;;;;;;;19.70;7.20;;;;;;;17.65;45.45;100336.44;79428;1295;3013657;-63
2023/09/27 01:39:41;;;;;;;12.00;6.70;;;;;;;17.66;45.48;100339.08;78240;1297;3027959;-64
2023/09/27 01:42:08;;;;;;;19.40;6.20;;;;;;;17.63;45.46;100341.39;79615;1294;3012952;-62
2023/09/27 01:44:35;;;;;;;17.40;6.30;;;;;;;17.63;45.65;100341.23;79486;1294;3011724;-63
2023/09/27 01:47:02;;;;;;;18.20;6.90;;;;;;;17.64;45.58;100340.79;78271;1297;3052899;-66
2023/09/27 01:49:29;;;;;;;12.40;6.20;;;;;;;17.65;45.80;100335.60;79424;1298;3013411;-63
2023/09/27 01:51:56;;;;;;;19.90;7.10;;;;;;;17.64;45.52;100335.66;79497;1293;3011736;-64
2023/09/27 01:54:24;;;;;;;17.00;6.70;;;;;;;17.62;45.90;100339.30;78426;1297;3026173;-65
2023/09/27 01:56:50;;;;;;;20.10;7.00;;;;;;;17.63;45.69;100341.41;79506;1295;3013647;-62
2023/09/27 01:59:17;;;;;;;16.50;6.40;;;;;;;17.64;45.61;100344.00;79485;1296;3011436;-64
2023/09/27 02:01:45;;;;;;;16.70;6.60;;;;;;;17.64;45.83;100342.04;78179;1300;3026549;-63
2023/09/27 02:04:11;;;;;;;18.20;7.10;;;;;;;17.62;45.81;100346.63;79475;1294;3013688;-62
2023/09/27 02:06:38;;;;;;;17.60;7.20;;;;;;;17.59;45.92;100348.82;79360;1295;3011604;-63
2023/09/27 02:09:06;;;;;;;16.80;7.50;;;;;;;17.55;46.34;100342.74;78238;1296;3025987;-66
2023/09/27 02:11:33;;;;;;;13.70;6.50;;;;;;;17.49;46.38;100347.02;79470;1294;3013494;-63
2023/09/27 02:14:03;;;;;;;15.80;7.10;;;;;;;17.46;46.46;100346.02;79260;1295;3013131;-63
2023/09/27 02:16:33;;;;;;;20.10;7.70;;;;;;;17.45;46.41;100353.87;78196;1297;3053549;-62
2023/09/27 02:18:59;;;;;;;13.90;7.10;;;;;;;17.44;46.53;100357.54;79541;1294;3013356;-61
2023/09/27 02:21:26;;;;;;;14.70;7.10;;;;;;;17.40;46.74;100361.19;79240;1295;3012015;-63
2023/09/27 02:23:55;;;;;;;12.60;7.10;;;;;;;17.39;46.73;100365.02;78295;1297;3056481;-63
2023/09/27 02:26:24;;;;;;;23.90;7.10;;;;;;;17.40;46.48;100359.77;79429;1293;3013704;-62
2023/09/27 02:28:54;;;;;;;19.50;7.10;;;;;;;17.40;46.22;100355.86;79018;1297;3011747;-65
2023/09/27 02:31:20;;;;;;;12.20;6.40;;;;;;;17.38;46.67;100357.80;77313;1300;3057177;-63
2023/09/27 02:33:47;;;;;;;14.90;7.20;;;;;;;17.39;46.49;100355.41;79474;1296;3012054;-61
2023/09/27 02:36:16;;;;;;;15.80;7.60;;;;;;;17.37;46.48;100358.37;79025;1295;3013521;-64
2023/09/27 02:38:42;;;;;;;16.10;6.90;;;;;;;17.36;46.83;100362.16;79254;1294;3013273;-62
2023/09/27 02:41:09;;;;;;;17.30;7.60;;;;;;;17.39;46.37;100361.63;79566;1295;3011808;-63
2023/09/27 02:43:37;;;;;;;24.20;7.60;;;;;;;17.37;46.63;100360.84;78305;1295;3027011;-64
2023/09/27 02:46:04;;;;;;;11.90;6.90;;;;;;;17.35;46.82;100361.92;79618;1298;3013571;-66
2023/09/27 02:48:31;;;;;;;21.40;7.30;;;;;;;17.29;46.72;100362.89;79501;1297;3011925;-63
2023/09/27 02:50:59;;;;;;;21.30;7.10;;;;;;;17.24;46.88;100360.39;78442;1294;3069147;-64
2023/09/27 02:53:25;;;;;;;16.30;7.20;;;;;;;17.21;47.01;100357.34;79542;1294;3012795;-66
2023/09/27 02:55:52;;;;;;;16.00;7.10;;;;;;;17.18;46.78;100364.61;79473;1297;3011415;-63
2023/09/27 02:58:21;;;;;;;16.50;7.90;;;;;;;17.17;46.78;100363.94;78193;1297;3028320;-64
2023/09/27 03:00:48;;;;;;;16.70;7.10;;;;;;;17.14;46.99;100365.23;79424;1296;3013600;-64
2023/09/27 03:03:14;;;;;;;13.10;7.30;;;;;;;17.12;47.02;100359.52;79426;1295;3013127;-64
2023/09/27 03:05:42;;;;;;;17.40;7.60;;;;;;;17.11;47.23;100364.55;78621;1293;3067688;-61
2023/09/27 03:08:09;;;;;;;15.40;7.60;;;;;;;17.09;47.14;100359.40;82089;1294;3017988;-63
2023/09/27 03:10:38;;;;;;;20.70;7.60;;;;;;;17.09;47.24;100357.29;82035;1294;3010888;-63
2023/09/27 03:13:07;;;;;;;13.30;7.90;;;;;;;17.09;47.66;100360.14;80784;1294;3053095;-64
2023/09/27 03:15:34;;;;;;;20.40;7.00;;;;;;;17.10;47.61;100361.84;82098;1294;3013040;-64
2023/09/27 03:18:01;;;;;;;19.60;7.50;;;;;;;17.09;47.44;100367.52;82072;1294;3011189;-63
2023/09/27 03:20:30;;;;;;;14.40;6.90;;;;;;;17.08;47.28;100365.16;80828;1293;3069049;-63
2023/09/27 03:22:57;;;;;;;12.70;7.20;;;;;;;17.10;47.61;100367.78;82056;1293;3012915;-64
2023/09/27 03:25:26;;;;;;;16.90;7.90;;;;;;;17.14;47.43;100365.09;82141;1294;3011306;-65
2023/09/27 03:27:54;;;;;;;14.30;7.00;;;;;;;17.15;47.82;100366.91;80793;1294;3051715;-64
2023/09/27 03:30:21;;;;;;;18.90;7.50;;;;;;;17.14;47.48;100368.58;82132;1294;3018547;-64
2023/09/27 03:32:47;;;;;;;15.80;7.10;;;;;;;17.15;47.65;100366.42;82061;1294;3011533;-64
2023/09/27 03:35:15;;;;;;;16.20;7.30;;;;;;;17.15;47.63;100373.14;80842;1294;3026324;-64
2023/09/27 03:37:44;;;;;;;14.80;7.40;;;;;;;17.12;47.90;100373.54;82107;1294;3011182;-65
2023/09/27 03:40:13;;;;;;;16.20;7.80;;;;;;;17.09;47.91;100374.95;81511;1294;3011294;-66
2023/09/27 03:42:42;;;;;;;20.70;8.00;;;;;;;17.06;47.91;100377.83;82061;1294;3013034;-67
2023/09/27 03:45:09;;;;;;;14.90;7.10;;;;;;;17.00;48.35;100375.85;82110;1294;3011352;-67
2023/09/27 03:47:40;;;;;;;17.00;7.60;;;;;;;16.94;48.23;100375.16;80789;1294;3052973;-66
2023/09/27 03:50:07;;;;;;;19.40;8.10;;;;;;;16.93;48.24;100375.40;82049;1294;3012428;-65
2023/09/27 03:52:33;;;;;;;15.50;7.70;;;;;;;16.91;48.38;100368.16;82005;1294;3011380;-63
2023/09/27 03:55:02;;;;;;;18.50;8.70;;;;;;;16.86;48.59;100372.95;80758;1294;3056522;-63
2023/09/27 03:57:28;;;;;;;13.60;7.50;;;;;;;16.84;48.77;100375.86;82040;1297;3018581;-64
2023/09/27 03:59:55;;;;;;;16.70;8.20;;;;;;;16.87;48.54;100371.22;81974;1294;3011732;-64
2023/09/27 04:02:23;;;;;;;16.40;7.80;;;;;;;16.86;48.57;100370.42;80789;1294;3026021;-65
2023/09/27 04:04:49;;;;;;;34.30;8.20;;;;;;;16.85;49.02;100368.95;82015;1295;3013087;-63
2023/09/27 04:07:17;;;;;;;21.80;8.30;;;;;;;16.82;49.20;100372.55;82080;1294;3011350;-66
2023/09/27 04:09:46;;;;;;;18.20;8.30;;;;;;;16.81;48.94;100372.39;80728;1294;3057381;-65
2023/09/27 04:12:12;;;;;;;18.20;7.80;;;;;;;16.78;49.63;100374.38;82062;1294;3019093;-64
2023/09/27 04:14:39;;;;;;;19.80;7.90;;;;;;;16.81;49.19;100382.48;82092;1293;3011676;-64
2023/09/27 04:17:07;;;;;;;19.10;7.50;;;;;;;16.82;49.15;100380.98;80814;1297;3026461;-64
2023/09/27 04:19:33;;;;;;;25.10;8.60;;;;;;;16.82;49.49;100379.71;82100;1293;3012881;-63
2023/09/27 04:22:00;;;;;;;15.80;8.00;;;;;;;16.84;49.47;100381.34;82082;1294;3011114;-65
2023/09/27 04:24:28;;;;;;;21.60;8.90;;;;;;;16.82;49.72;100382.91;80830;1293;3027570;-63
2023/09/27 04:26:54;;;;;;;17.10;7.70;;;;;;;16.82;49.50;100379.91;82092;1294;3012545;-66
2023/09/27 04:29:21;;;;;;;17.70;8.30;;;;;;;16.88;49.52;100383.59;82119;1293;3011693;-65
2023/09/27 04:31:48;;;;;;;21.50;9.60;;;;;;;16.90;49.42;100379.72;80848;1294;3025894;-65
2023/09/27 04:34:16;;;;;;;17.60;8.30;;;;;;;16.93;49.65;100377.94;82160;1294;3018207;-64
2023/09/27 04:36:42;;;;;;;17.10;8.20;;;;;;;16.95;49.89;100382.40;82094;1294;3011354;-65
2023/09/27 04:39:15;;;;;;;29.30;9.30;;;;;;;16.98;49.69;100377.74;80803;1293;3026496;-65
2023/09/27 04:41:42;;;;;;;20.20;7.90;;;;;;;17.00;49.82;100381.48;82051;1294;3011504;-64
2023/09/27 04:44:10;;;;;;;17.60;8.30;;;;;;;16.98;49.97;100381.08;80816;1293;3052399;-65
2023/09/27 04:46:36;;;;;;;18.50;7.90;;;;;;;16.98;50.34;100382.36;82107;1293;3013068;-65
2023/09/27 04:49:03;;;;;;;23.10;8.70;;;;;;;17.04;50.15;100383.80;82071;1294;3011307;-65
2023/09/27 04:51:31;;;;;;;22.90;8.40;;;;;;;17.06;50.37;100390.74;80832;1294;3026148;-65
2023/09/27 04:54:03;;;;;;;21.90;8.20;;;;;;;17.14;50.30;100393.25;82091;1294;3012619;-66
2023/09/27 04:56:31;;;;;;;21.90;8.60;;;;;;;17.20;50.11;100394.70;80828;1294;3049397;-64
2023/09/27 04:58:58;;;;;;;23.50;9.10;;;;;;;17.26;50.11;100391.46;82113;1292;3012529;-67
2023/09/27 05:01:26;;;;;;;22.80;8.90;;;;;;;17.33;50.14;100394.35;82100;1294;3011383;-67
2023/09/27 05:03:53;;;;;;;20.60;8.50;;;;;;;17.40;49.98;100388.64;80864;1294;3053326;-64
2023/09/27 05:06:20;;;;;;;26.10;8.40;;;;;;;17.45;50.19;100391.61;82130;1293;3018347;-65
2023/09/27 05:08:47;;;;;;;23.50;9.00;;;;;;;17.52;49.97;100388.59;82148;1293;3010860;-64
2023/09/27 05:11:14;;;;;;;25.00;9.00;;;;;;;17.61;49.78;100391.16;80803;1294;3026759;-64
2023/09/27 05:13:41;;;;;;;22.70;8.20;;;;;;;17.70;49.27;100384.77;82120;1295;3012945;-65
2023/09/27 05:16:07;;;;;;;19.40;9.00;;;;;;;17.79;49.07;100388.92;82066;1295;3011203;-65
2023/09/27 05:18:35;;;;;;;27.30;8.80;;;;;;;17.86;48.84;100389.45;80851;1293;3026197;-66
2023/09/27 05:21:06;;;;;;;23.90;8.50;;;;;;;17.93;48.98;100391.71;82156;1293;3018177;-66
2023/09/27 05:23:34;;;;;;;25.60;8.00;;;;;;;18.02;48.74;100391.40;81528;1294;3011394;-65
2023/09/27 05:26:01;;;;;;;28.60;9.30;;;;;;;18.12;48.76;100395.44;82106;1294;3012814;-65
2023/09/27 05:28:28;;;;;;;21.20;8.10;;;;;;;18.21;48.29;100394.23;82060;1294;3011423;-66
2023/09/27 05:30:58;;;;;;;23.70;8.30;;;;;;;18.30;48.63;100395.81;80832;1293;3048362;-66
2023/09/27 05:33:25;;;;;;;20.70;8.60;;;;;;;18.37;48.62;100395.63;82085;1293;3012543;-64
2023/09/27 05:35:51;;;;;;;13.80;8.20;;;;;;;18.45;48.80;100396.44;82125;1294;3011296;-67
2023/09/27 05:38:20;;;;;;;17.10;8.40;;;;;;;18.53;48.53;100402.89;80851;1293;3050509;-64
2023/09/27 05:40:47;;;;;;;17.50;8.30;;;;;;;18.65;48.03;100397.89;82083;1297;3012886;-67
2023/09/27 05:43:14;;;;;;;18.50;8.10;;;;;;;18.75;47.60;100402.61;82074;1294;3011346;-64
2023/09/27 05:45:42;;;;;;;27.80;8.10;;;;;;;18.84;47.60;100403.48;80797;1294;3047987;-65
2023/09/27 05:48:08;;;;;;;20.00;7.70;;;;;;;18.95;47.65;100402.44;82132;1293;3013171;-68
2023/09/27 05:50:35;;;;;;;20.00;8.00;;;;;;;19.04;47.59;100403.34;82069;1293;3011527;-65
2023/09/27 05:53:03;;;;;;;17.70;7.70;;;;;;;19.12;47.35;100404.07;80821;1294;3026024;-66
2023/09/27 05:55:29;;;;;;;17.90;8.00;;;;;;;19.19;47.61;100406.93;82099;1293;3013823;-67
2023/09/27 05:57:56;;;;;;;15.80;8.10;;;;;;;19.26;47.26;100406.27;82109;1293;3011536;-65
2023/09/27 06:00:26;;;;;;;20.20;7.60;;;;;;;19.40;47.00;100409.10;80767;1294;3025176;-64
2023/09/27 06:02:53;;;;;;;16.40;7.10;;;;;;;19.51;46.85;100406.42;82105;1293;3011233;-69
2023/09/27 06:05:20;;;;;;;29.10;7.40;;;;;;;19.59;46.83;100407.60;82093;1294;3011156;-65
2023/09/27 06:07:48;;;;;;;15.20;7.80;;;;;;;19.68;46.65;100409.25;80755;1294;3050395;-69
2023/09/27 06:10:16;;;;;;;19.60;7.80;;;;;;;19.77;46.34;100403.83;82149;1293;3012756;-69
2023/09/27 06:12:43;;;;;;;14.30;7.60;;;;;;;19.86;46.02;100408.30;82070;1294;3011234;-66
2023/09/27 06:15:12;;;;;;;18.10;7.40;;;;;;;19.96;45.96;100402.30;80814;1294;3049909;-69
2023/09/27 06:17:38;;;;;;;18.60;7.90;;;;;;;20.07;45.93;100404.91;82138;1294;3013242;-68
2023/09/27 06:20:11;;;;;;;18.40;7.30;;;;;;;20.18;45.95;100403.84;82110;1293;3011440;-69
2023/09/27 06:22:40;;;;;;;13.80;7.20;;;;;;;20.28;45.97;100404.17;80828;1294;3052705;-69
2023/09/27 06:25:07;;;;;;;19.00;6.80;;;;;;;20.38;45.73;100410.83;82074;1294;3012966;-70
2023/09/27 06:27:34;;;;;;;20.40;7.30;;;;;;;20.49;45.57;100409.31;82079;1295;3011363;-71
2023/09/27 06:30:03;;;;;;;13.10;7.00;;;;;;;20.60;45.28;100410.83;80839;1295;3049421;-69
2023/09/27 06:32:30;;;;;;;13.50;6.50;;;;;;;20.72;45.04;100411.60;82101;1293;3011515;-68
2023/09/27 06:34:57;;;;;;;12.40;6.60;;;;;;;20.85;44.75;100405.15;82150;1294;3011374;-71
2023/09/27 06:37:25;;;;;;;12.10;6.30;;;;;;;20.95;44.70;100410.64;80861;1293;3050215;-69
2023/09/27 06:42:56;;;;;;;16.20;6.80;;;;;;;21.19;44.58;100411.48;80282;1302;3013543;-71
2023/09/27 06:45:22;;;;;;;17.60;6.20;;;;;;;21.28;44.20;100413.34;79269;1302;3012815;-67
2023/09/27 06:47:49;;;;;;;21.60;6.90;;;;;;;21.40;43.91;100415.84;79204;1302;3011690;-68
2023/09/27 06:50:17;;;;;;;20.70;6.60;;;;;;;21.52;43.76;100412.13;78017;1304;3026160;-68
2023/09/27 06:52:46;;;;;;;21.90;6.60;;;;;;;21.59;43.81;100416.12;79329;1304;3011560;-69
2023/09/27 06:55:19;;;;;;;19.40;6.40;;;;;;;21.67;43.60;100416.60;76019;1304;3150145;-68
2023/09/27 06:57:47;;;;;;;18.80;6.50;;;;;;;21.75;43.46;100417.45;79362;1299;3014023;-68
2023/09/27 07:00:24;;;;;;;19.20;6.00;;;;;;;21.85;43.12;100416.77;78198;1299;3049788;-70
2023/09/27 07:02:52;;;;;;;25.00;7.00;;;;;;;21.90;43.03;100411.80;78171;1299;3053538;-70
2023/09/27 07:05:21;;;;;;;22.20;6.50;;;;;;;21.92;43.26;100406.95;79506;1304;3018467;-67
2023/09/27 07:07:50;;;;;;;24.80;6.90;;;;;;;22.02;43.12;100410.89;79642;1301;3011444;-67
2023/09/27 07:10:18;;;;;;;19.40;6.40;;;;;;;22.11;42.84;100413.94;78097;1299;3070205;-66
2023/09/27 07:12:46;;;;;;;14.00;6.90;;;;;;;22.21;42.79;100414.76;79585;1302;3019315;-67
2023/09/27 07:15:13;;;;;;;37.70;7.30;;;;;;;22.25;42.80;100413.52;79479;1303;3011659;-67
2023/09/27 07:17:43;;;;;;;21.20;6.80;;;;;;;22.36;42.71;100410.27;78173;1311;3052671;-67
2023/09/27 07:20:24;;;;;;;17.70;7.10;;;;;;;22.38;42.18;100413.27;79404;1304;3013156;-66
2023/09/27 07:22:52;;;;;;;18.20;6.30;;;;;;;22.50;42.32;100413.35;78223;1305;3052167;-63
2023/09/27 07:25:20;;;;;;;19.90;7.10;;;;;;;22.58;41.95;100414.88;79619;1304;3011544;-64
2023/09/27 07:27:50;;;;;;;14.80;6.60;;;;;;;22.65;41.75;100414.45;79480;1299;3012811;-62
2023/09/27 07:30:18;;;;;;;14.90;6.00;;;;;;;22.72;41.12;100416.20;78103;1303;3056660;-67
2023/09/27 07:32:45;;;;;;;13.40;6.10;;;;;;;22.78;41.10;100415.61;79690;1298;3012932;-69
2023/09/27 07:35:14;;;;;;;19.90;6.70;;;;;;;22.85;40.72;100415.86;79458;1298;3013760;-66
2023/09/27 07:37:42;;;;;;;20.50;7.00;;;;;;;22.90;40.91;100416.59;78086;1303;3052720;-64
2023/09/27 07:40:12;;;;;;;16.70;7.00;;;;;;;22.95;41.02;100418.95;79904;1301;3011497;-65
2023/09/27 07:42:44;;;;;;;22.30;6.90;;;;;;;22.98;40.71;100414.98;78364;1299;3028369;-61
2023/09/27 07:45:16;;;;;;;15.90;7.00;;;;;;;23.05;40.72;100413.88;79681;1296;3011882;-61
2023/09/27 07:47:44;;;;;;;14.10;6.10;;;;;;;23.18;40.75;100415.54;78579;1295;3056336;-64
2023/09/27 07:50:10;;;;;;;21.80;7.00;;;;;;;23.29;40.22;100416.22;79698;1299;3013475;-63
2023/09/27 07:52:37;;;;;;;19.10;7.10;;;;;;;23.36;39.91;100415.23;79635;1296;3011656;-63
2023/09/27 07:55:08;;;;;;;16.40;7.20;;;;;;;23.42;40.02;100414.40;78507;1301;3026005;-64
2023/09/27 07:57:36;;;;;;;17.30;6.40;;;;;;;23.50;40.05;100410.98;82063;1295;3011185;-63
2023/09/27 08:00:10;;;;;;;18.30;6.70;;;;;;;23.59;40.03;100410.72;80766;1295;3027081;-62
2023/09/27 08:02:39;;;;;;;11.50;6.40;;;;;;;23.72;39.78;100409.62;80763;1295;3051147;-64
2023/09/27 08:05:10;;;;;;;21.40;7.00;;;;;;;23.79;39.15;100409.44;82071;1295;3012655;-62
2023/09/27 08:07:38;;;;;;;23.30;7.10;;;;;;;23.92;39.25;100403.84;80787;1295;3054396;-61
2023/09/27 08:10:05;;;;;;;16.70;7.30;;;;;;;24.06;39.14;100401.50;82061;1298;3018251;-61
2023/09/27 08:12:59;;;;;;;19.40;7.40;;;;;;;24.15;38.82;100397.61;80788;1298;3052359;-63
2023/09/27 08:15:25;;;;;;;22.10;6.80;;;;;;;24.24;38.73;100400.09;82057;1295;3011580;-63
2023/09/27 08:17:52;;;;;;;18.90;6.40;;;;;;;24.32;38.54;100398.52;82031;1294;3011148;-62
2023/09/27 08:20:19;;;;;;;15.80;5.70;;;;;;;24.43;38.63;100403.64;80770;1295;3025121;-64
2023/09/27 08:22:46;;;;;;;14.10;7.00;;;;;;;24.56;38.23;100397.05;82050;1296;3012673;-65
2023/09/27 08:25:16;;;;;;;15.60;6.60;;;;;;;24.68;38.23;100399.48;82085;1295;3012591;-65
2023/09/27 08:27:44;;;;;;;16.60;6.00;;;;;;;24.77;38.21;100396.38;80802;1295;3045201;-61
2023/09/27 08:30:11;;;;;;;13.60;6.10;;;;;;;24.92;37.98;100396.05;82064;1298;3018617;-63
2023/09/27 08:32:38;;;;;;;17.50;5.90;;;;;;;25.05;37.65;100391.73;82057;1295;3012615;-64
2023/09/27 08:35:06;;;;;;;13.30;5.60;;;;;;;25.15;37.26;100390.18;80793;1295;3041440;-64
2023/09/27 08:37:33;;;;;;;13.50;5.40;;;;;;;25.23;36.97;100387.11;82085;1296;3011245;-64
2023/09/27 08:40:00;;;;;;;11.20;5.40;;;;;;;25.33;37.09;100386.40;82086;1295;3013105;-64
2023/09/27 08:42:28;;;;;;;19.10;5.20;;;;;;;25.48;37.05;100385.41;80804;1295;3043046;-63
2023/09/27 08:44:54;;;;;;;13.10;5.20;;;;;;;25.64;36.84;100382.77;82042;1301;3011110;-66
2023/09/27 08:47:21;;;;;;;15.40;5.70;;;;;;;25.76;36.36;100376.04;81961;1296;3011368;-64
2023/09/27 08:49:52;;;;;;;9.00;4.70;;;;;;;25.87;36.08;100373.76;80687;1295;3027804;-65
2023/09/27 08:52:18;;;;;;;10.70;4.90;;;;;;;25.97;35.57;100379.12;81984;1296;3011269;-65
2023/09/27 08:54:47;;;;;;;12.30;5.10;;;;;;;26.07;35.61;100378.12;81505;1295;3011747;-64
2023/09/27 08:57:14;;;;;;;11.50;5.00;;;;;;;26.18;35.24;100374.33;82103;1295;3012665;-63
2023/09/27 08:59:40;;;;;;;14.60;5.50;;;;;;;26.29;35.04;100375.70;82036;1298;3011330;-63
2023/09/27 09:02:09;;;;;;;10.80;5.00;;;;;;;26.36;34.62;100372.77;80838;1295;3026568;-64
2023/09/27 09:04:35;;;;;;;10.10;4.30;;;;;;;26.45;35.01;100370.17;82042;1298;3013012;-63
2023/09/27 09:07:02;;;;;;;12.20;4.40;;;;;;;26.56;34.89;100366.73;82052;1295;3011238;-62
2023/09/27 09:09:30;;;;;;;10.40;4.70;;;;;;;26.66;34.55;100365.73;80822;1298;3049387;-64
2023/09/27 09:12:00;;;;;;;11.10;3.70;;;;;;;26.74;33.85;100364.92;82061;1298;3018162;-61
2023/09/27 09:14:49;;;;;;;10.00;4.20;;;;;;;26.82;33.25;100363.15;82047;1298;3011032;-66
2023/09/27 09:17:24;;;;;;;10.70;3.90;;;;;;;26.90;33.35;100362.67;80751;1295;3050170;-72
2023/09/27 09:20:21;;;;;;;14.70;4.00;;;;;;;27.02;32.94;100358.31;81526;1295;3011509;-67
2023/09/27 09:22:53;;;;;;;10.50;3.80;;;;;;;27.20;33.03;100357.80;80759;1295;3056284;-69
2023/09/27 09:25:21;;;;;;;9.00;3.90;;;;;;;27.30;32.52;100354.66;82034;1295;3011334;-69
2023/09/27 09:28:02;;;;;;;10.00;3.50;;;;;;;27.35;32.66;100351.35;80777;1295;3052004;-66
2023/09/27 09:30:39;;;;;;;10.00;3.70;;;;;;;27.36;31.53;100352.33;80805;1295;3050247;-67
2023/09/27 09:33:22;;;;;;;11.70;3.60;;;;;;;27.41;32.22;100349.30;81502;1295;3011246;-67
2023/09/27 09:35:51;;;;;;;9.20;3.50;;;;;;;27.49;32.07;100347.08;80779;1299;3053596;-65
2023/09/27 09:38:29;;;;;;;9.70;3.60;;;;;;;27.54;32.06;100340.56;82038;1298;3011592;-65
2023/09/27 09:40:57;;;;;;;7.50;3.40;;;;;;;27.63;32.23;100339.38;80791;1295;3050806;-67
2023/09/27 09:43:31;;;;;;;7.00;3.50;;;;;;;27.71;32.11;100340.16;82048;1298;3012297;-67
2023/09/27 09:46:00;;;;;;;6.20;3.60;;;;;;;27.72;31.41;100341.59;80755;1298;3052200;-65
2023/09/27 09:48:27;;;;;;;10.90;3.90;;;;;;;27.79;30.74;100331.90;82029;1295;3011310;-65
2023/09/27 09:51:01;;;;;;;12.60;3.30;;;;;;;27.85;30.77;100331.67;82059;1295;3011351;-65
2023/09/27 09:53:29;;;;;;;10.80;3.60;;;;;;;27.93;30.63;100325.44;80707;1295;3069259;-70
2023/09/27 09:55:59;;;;;;;12.30;3.40;;;;;;;28.01;30.81;100321.59;82078;1295;3012855;-68
2023/09/27 09:58:47;;;;;;;16.30;4.00;;;;;;;28.12;30.74;100320.49;81532;1295;3011439;-68
2023/09/27 10:01:21;;;;;;;11.60;4.10;;;;;;;28.06;30.23;100324.21;80795;1295;3050042;-71
2023/09/27 10:03:51;;;;;;;12.70;3.70;;;;;;;28.18;29.71;100319.01;81502;1297;3011467;-70
2023/09/27 10:06:19;;;;;;;8.60;3.80;;;;;;;28.21;29.28;100308.70;82035;1296;3013106;-66
2023/09/27 10:08:47;;;;;;;10.70;4.00;;;;;;;28.34;29.29;100308.81;82066;1295;3011429;-66
2023/09/27 10:11:15;;;;;;;7.50;3.60;;;;;;;28.29;28.89;100313.22;80777;1295;3053571;-69
2023/09/27 10:13:42;;;;;;;12.20;3.70;;;;;;;28.39;29.01;100311.44;82089;1295;3012592;-67
2023/09/27 10:16:08;;;;;;;10.50;3.20;;;;;;;28.56;29.04;100306.11;81968;1295;3011175;-68
2023/09/27 10:18:37;;;;;;;7.90;3.50;;;;;;;28.64;28.90;100307.05;80798;1294;3026084;-69
2023/09/27 10:21:07;;;;;;;12.40;3.70;;;;;;;28.68;28.88;100304.64;82005;1295;3012862;-65
2023/09/27 10:23:45;;;;;;;6.10;3.90;;;;;;;28.68;28.46;100301.06;80774;1298;3052312;-67
2023/09/27 10:26:25;;;;;;;11.10;3.70;;;;;;;28.70;28.20;100301.71;80765;1294;3051993;-67
2023/09/27 10:29:03;;;;;;;8.60;3.80;;;;;;;28.76;28.05;100299.33;80791;1295;3068486;-67
2023/09/27 10:31:57;;;;;;;8.20;3.40;;;;;;;28.83;28.13;100295.61;80757;1295;3051278;-66
2023/09/27 10:34:25;;;;;;;5.90;3.30;;;;;;;28.94;27.62;100298.52;80821;1295;3057959;-66
2023/09/27 10:36:52;;;;;;;4.00;3.00;;;;;;;28.99;27.44;100297.64;82042;1295;3018153;-68
2023/09/27 10:39:19;;;;;;;11.80;3.90;;;;;;;29.02;27.74;100295.51;82053;1295;3011126;-66
2023/09/27 10:41:50;;;;;;;9.30;3.80;;;;;;;28.99;27.78;100299.84;80720;1308;3025973;-66
2023/09/27 10:44:28;;;;;;;5.90;2.90;;;;;;;29.03;27.72;100295.80;82052;1294;3011165;-68
2023/09/27 10:46:57;;;;;;;10.00;3.40;;;;;;;29.18;26.66;100290.77;80754;1294;3068501;-66
2023/09/27 10:49:25;;;;;;;10.80;3.30;;;;;;;29.26;27.15;100292.14;82077;1294;3011412;-67
2023/09/27 10:51:54;;;;;;;9.90;3.50;;;;;;;29.15;27.42;100289.70;81524;1294;3011314;-66
2023/09/27 10:54:24;;;;;;;9.80;3.50;;;;;;;29.02;27.42;100288.09;82017;1295;3012673;-68
2023/09/27 10:56:53;;;;;;;8.20;3.30;;;;;;;29.04;27.73;100286.82;81514;1294;3011247;-65
2023/09/27 10:59:26;;;;;;;8.40;3.50;;;;;;;28.97;27.22;100285.88;82077;1295;3018639;-66
2023/09/27 11:01:55;;;;;;;7.20;3.00;;;;;;;29.10;26.95;100276.80;80806;1295;3052144;-67
2023/09/27 11:04:25;;;;;;;7.70;3.60;;;;;;;29.15;26.69;100271.55;82063;1295;3018671;-66
2023/09/27 11:06:55;;;;;;;14.70;3.20;;;;;;;29.10;26.58;100272.02;81504;1295;3011016;-69
2023/09/27 11:09:23;;;;;;;8.20;3.40;;;;;;;29.11;26.91;100274.94;82077;1294;3012645;-67
2023/09/27 11:11:59;;;;;;;6.30;3.50;;;;;;;29.17;26.92;100272.48;82003;1299;3011434;-68